• Join FlightAware (Why Join?)
  • Login
  • US Flag 
09:00AM EDT


 

Airport Tracker/Info


-or-


 

Live Flight TrackerFlight Track Log ✈ N46024 ✈ 29-Apr-2014 ✈ KOCF - KZPH

Flight Track Log - Related Links

Times and Time Zones

All times are in EDT time to prevent confusion due to time zone crossing. See the N46024 flight status page for this flight to view local times or setup timezone preferences in your user account.

Time Position Orientation Groundspeed Altitude Reporting Facility
EDT Latitude Longitude Course Direction KTS MPH feet Rate Location/Type
12:46PM 29.1603 -82.2267 181° South 66 76 700  Level Jacksonville Center
12:47PM 29.1394 -82.2269 181° South 68 78 1,500 600 Climbing Jacksonville Center
12:48PM 29.1208 -82.2269 180° South 71 82 2,000 240 Climbing Jacksonville Center
12:49PM 29.0958 -82.2247 176° South 82 94 2,100 360 Climbing Jacksonville Center
12:50PM 29.0728 -82.2250 181° South 78 90 2,800 660 Climbing Jacksonville Center
12:51PM 29.0519 -82.2275 186° South 70 81 3,500 660 Climbing Jacksonville Center
12:52PM 29.0331 -82.2275 180° South 69 79 4,200 600 Climbing Jacksonville Center
12:53PM 29.0122 -82.2300 186° South 72 83 4,800 360 Climbing Jacksonville Center
12:54PM 28.9892 -82.2278 175° South 84 97 5,000 60 Climbing Jacksonville Center
12:55PM 28.9642 -82.2208 166° South 94 108 5,000  Level Jacksonville Center
12:56PM 28.9411 -82.2189 176° South 86 99 5,000  Level Jacksonville Center
12:57PM 28.9161 -82.2189 180° South 88 101 5,000  Level Jacksonville Center
12:58PM 28.8911 -82.2167 176° South 92 106 5,000 -60 Level Jacksonville Center
12:59PM 28.8661 -82.2144 176° South 90 104 4,900 -60 Descending Jacksonville Center
01:00PM 28.8389 -82.2122 176° South 95 109 4,900  Level Jacksonville Center
01:02PM 28.7833 -82.2167 184° South 94 108 5,000  Climbing Tampa TRACON
01:03PM 28.7667 -82.2167 180° South 93 107 5,000  Level Tampa TRACON
01:04PM 28.7333 -82.2167 180° South 94 108 5,000  Level Tampa TRACON
01:05PM 28.7000 -82.2333 204° Southwest 95 109 5,000  Level Tampa TRACON
01:06PM 28.6833 -82.2333 180° South 92 106 5,000  Level Tampa TRACON
01:07PM 28.6500 -82.2333 180° South 91 105 5,000  Level Tampa TRACON
01:08PM 28.6333 -82.2333 180° South 96 110 5,000  Level Tampa TRACON
01:09PM 28.6000 -82.2167 156° South 95 109 5,000  Level Tampa TRACON
01:10PM 28.5833 -82.2167 180° South 93 107 5,000 -420 Level Tampa TRACON
01:11PM 28.5500 -82.2167 180° South 98 113 4,200 -720 Descending Tampa TRACON
01:12PM 28.5167 -82.2000 156° South 103 119 3,600 -600 Descending Tampa TRACON
01:13PM 28.5000 -82.2000 180° South 102 117 3,000 -540 Descending Tampa TRACON
01:14PM 28.4667 -82.2000 180° South 101 116 2,600 -420 Descending Tampa TRACON